Time;durP1;ratioP1;P1;durP2;ratioP2;P2;SDS_P1;SDS_P2;PMS_P1;PMS_P2;Temp;Humidity;BMP_temperature;BMP_pressure;BME280_temperature;BME280_humidity;BME280_pressure;Samples;Min_cycle;Max_cycle;Signal;HPM_P1;HPM_P2
2020/12/06 00:02:23;;;;;;;17.00;10.70;;;3.00;99.90;;;;;;5093268;28;20964;-68
2020/12/06 00:04:49;;;;;;;19.67;10.83;;;3.00;99.90;;;;;;5093613;28;20447;-69
2020/12/06 00:07:16;;;;;;;20.93;11.23;;;3.10;99.90;;;;;;5093591;28;20444;-69
2020/12/06 00:09:42;;;;;;;22.37;10.83;;;3.10;99.90;;;;;;5093419;28;20459;-69
2020/12/06 00:12:09;;;;;;;25.03;10.93;;;3.10;99.90;;;;;;5093420;28;20479;-69
2020/12/06 00:14:35;;;;;;;18.67;10.10;;;3.10;99.90;;;;;;5093416;28;20448;-69
2020/12/06 00:17:01;;;;;;;22.87;11.40;;;3.10;99.90;;;;;;5093134;28;20449;-69
2020/12/06 00:19:27;;;;;;;19.83;10.50;;;3.00;99.90;;;;;;5093166;28;20471;-69
2020/12/06 00:21:54;;;;;;;18.97;10.37;;;3.00;99.90;;;;;;5093119;28;20442;-69
2020/12/06 00:24:22;;;;;;;22.83;10.70;;;3.00;99.90;;;;;;5093364;28;20471;-69
2020/12/06 00:26:48;;;;;;;21.40;11.17;;;3.00;99.90;;;;;;5092954;28;21009;-69
2020/12/06 00:29:14;;;;;;;17.80;10.70;;;3.10;99.90;;;;;;5092881;28;20439;-69
2020/12/06 00:31:40;;;;;;;20.43;11.23;;;3.10;99.90;;;;;;5093298;28;20483;-68
2020/12/06 00:34:07;;;;;;;19.70;11.67;;;3.10;99.90;;;;;;5093116;28;20854;-69
2020/12/06 00:36:33;;;;;;;21.40;11.87;;;3.10;99.90;;;;;;5092840;28;20440;-69
2020/12/06 00:38:59;;;;;;;20.70;11.67;;;3.10;99.90;;;;;;5092864;28;20440;-69
2020/12/06 00:41:26;;;;;;;20.77;10.70;;;3.10;99.90;;;;;;5093189;28;20442;-70
2020/12/06 00:43:53;;;;;;;20.67;11.00;;;3.10;99.90;;;;;;5093052;28;20447;-69
2020/12/06 00:46:20;;;;;;;21.73;11.97;;;3.10;99.90;;;;;;5093156;28;20444;-69
2020/12/06 00:48:47;;;;;;;18.17;10.00;;;3.10;99.90;;;;;;5093069;28;20530;-69
2020/12/06 00:51:13;;;;;;;20.50;10.57;;;3.20;99.90;;;;;;5092962;28;20456;-69
2020/12/06 00:53:40;;;;;;;16.80;10.03;;;3.20;99.90;;;;;;5092957;28;20475;-70
2020/12/06 00:56:07;;;;;;;19.57;11.33;;;3.20;99.90;;;;;;5092975;28;20459;-69
2020/12/06 00:58:34;;;;;;;18.97;10.50;;;3.20;99.90;;;;;;5093011;28;20447;-69
2020/12/06 01:01:00;;;;;;;22.50;10.60;;;3.20;99.90;;;;;;5092854;28;20464;-69
2020/12/06 01:03:26;;;;;;;15.97;10.70;;;3.30;99.90;;;;;;5092710;28;20955;-69
2020/12/06 01:05:52;;;;;;;18.60;10.03;;;3.30;99.90;;;;;;5092850;28;20439;-69
2020/12/06 01:08:18;;;;;;;17.43;11.30;;;3.30;99.90;;;;;;5092653;28;20943;-69
2020/12/06 01:10:45;;;;;;;21.80;10.80;;;3.30;99.90;;;;;;5092897;28;20464;-69
2020/12/06 01:13:11;;;;;;;22.77;11.40;;;3.20;99.90;;;;;;5092491;28;20471;-69
2020/12/06 01:15:38;;;;;;;19.67;11.43;;;3.20;99.90;;;;;;5092816;28;20448;-69
2020/12/06 01:18:04;;;;;;;17.63;10.43;;;3.10;99.90;;;;;;5092525;28;20934;-69
2020/12/06 01:20:30;;;;;;;21.17;11.57;;;3.10;99.90;;;;;;5092789;28;20456;-69
2020/12/06 01:22:57;;;;;;;17.90;10.40;;;3.10;99.90;;;;;;5092437;28;20436;-69
2020/12/06 01:25:23;;;;;;;19.57;10.33;;;3.10;99.90;;;;;;5092827;28;20856;-69
2020/12/06 01:27:50;;;;;;;21.00;11.13;;;3.20;99.90;;;;;;5092751;28;20465;-69
2020/12/06 01:30:16;;;;;;;20.70;9.23;;;3.20;99.90;;;;;;5092715;28;20459;-69
2020/12/06 01:32:43;;;;;;;16.53;9.23;;;3.20;99.90;;;;;;5093881;28;20998;-69
2020/12/06 01:35:09;;;;;;;15.60;10.23;;;3.20;99.90;;;;;;5096279;28;20467;-69
2020/12/06 01:37:35;;;;;;;14.50;10.13;;;3.20;99.90;;;;;;5096350;28;20467;-69
2020/12/06 01:40:02;;;;;;;19.00;10.40;;;3.20;99.90;;;;;;5096370;28;20464;-69
2020/12/06 01:42:28;;;;;;;21.83;11.23;;;3.20;99.90;;;;;;5096212;28;20432;-69
2020/12/06 01:44:58;;;;;;;16.57;9.53;;;3.20;99.90;;;;;;5096165;28;20436;-69
2020/12/06 01:47:25;;;;;;;20.17;10.60;;;3.20;99.90;;;;;;5095799;28;20461;-69
2020/12/06 01:49:53;;;;;;;20.00;9.87;;;3.20;99.90;;;;;;5096052;28;20475;-69
2020/12/06 01:52:19;;;;;;;18.20;11.00;;;3.30;99.90;;;;;;5095651;28;20486;-69
2020/12/06 01:54:48;;;;;;;21.67;11.97;;;3.30;99.90;;;;;;5095631;28;20440;-69
2020/12/06 01:57:15;;;;;;;18.03;10.70;;;3.30;99.90;;;;;;5096022;28;20451;-69
2020/12/06 01:59:41;;;;;;;20.43;11.43;;;3.30;99.90;;;;;;5095847;28;20468;-69
2020/12/06 02:02:07;;;;;;;17.63;10.87;;;3.20;99.90;;;;;;5095873;28;20440;-70
2020/12/06 02:04:34;;;;;;;19.40;11.37;;;3.20;99.90;;;;;;5095689;28;20474;-70
2020/12/06 02:07:01;;;;;;;20.53;12.33;;;3.20;99.90;;;;;;5095422;28;21005;-70
2020/12/06 02:09:29;;;;;;;21.53;12.00;;;3.30;99.90;;;;;;5095422;28;20989;-69
2020/12/06 02:11:55;;;;;;;21.63;12.33;;;3.20;99.90;;;;;;5095671;28;20475;-70
2020/12/06 02:14:22;;;;;;;23.20;12.40;;;3.20;99.90;;;;;;5095690;28;20440;-69
2020/12/06 02:16:53;;;;;;;23.40;12.70;;;3.30;99.90;;;;;;5095448;28;20931;-70
2020/12/06 02:19:19;;;;;;;21.30;11.47;;;3.30;99.90;;;;;;5095508;28;20436;-69
2020/12/06 02:21:47;;;;;;;24.63;13.20;;;3.30;99.90;;;;;;5095463;28;20440;-70
2020/12/06 02:24:17;;;;;;;19.93;12.50;;;3.30;99.90;;;;;;5095480;28;20444;-71
2020/12/06 02:26:44;;;;;;;22.37;12.33;;;3.30;99.90;;;;;;5095114;28;20950;-69
2020/12/06 02:29:11;;;;;;;22.33;11.93;;;3.30;99.90;;;;;;5095478;28;20485;-69
2020/12/06 02:31:38;;;;;;;19.60;10.67;;;3.30;99.90;;;;;;5095226;28;20448;-70
2020/12/06 02:34:05;;;;;;;16.93;11.10;;;3.30;99.90;;;;;;5095116;28;20479;-69
2020/12/06 02:36:31;;;;;;;23.13;11.20;;;3.30;99.90;;;;;;5095459;28;20435;-69
2020/12/06 02:38:59;;;;;;;22.50;11.43;;;3.30;99.90;;;;;;5095416;28;20436;-69
2020/12/06 02:41:35;;;;;;;17.90;11.07;;;3.30;99.90;;;;;;5094974;28;20836;-69
2020/12/06 02:44:01;;;;;;;19.83;12.17;;;3.30;99.90;;;;;;5095046;28;20420;-69
2020/12/06 02:46:28;;;;;;;22.27;11.70;;;3.30;99.90;;;;;;5095289;28;20439;-69
2020/12/06 02:48:54;;;;;;;21.60;12.40;;;3.30;99.90;;;;;;5095268;28;20514;-69
2020/12/06 02:51:20;;;;;;;21.27;12.20;;;3.30;99.90;;;;;;5095163;28;20471;-69
2020/12/06 02:53:46;;;;;;;20.93;11.40;;;3.40;99.90;;;;;;5094805;28;20479;-69
2020/12/06 02:56:14;;;;;;;26.67;11.67;;;3.30;99.90;;;;;;5095115;28;20444;-69
2020/12/06 02:58:40;;;;;;;20.60;12.63;;;3.30;99.90;;;;;;5095031;28;20439;-69
2020/12/06 03:01:06;;;;;;;20.90;12.77;;;3.30;99.90;;;;;;5094611;28;21010;-69
2020/12/06 03:03:32;;;;;;;16.10;9.93;;;3.30;99.90;;;;;;5094969;28;20432;-69
2020/12/06 03:05:58;;;;;;;20.27;11.00;;;3.30;99.90;;;;;;5094918;28;20853;-69
2020/12/06 03:08:24;;;;;;;17.40;11.33;;;3.30;99.90;;;;;;5094880;28;20444;-69
2020/12/06 03:10:51;;;;;;;17.70;11.77;;;3.30;99.90;;;;;;5094390;28;21006;-69
2020/12/06 03:13:18;;;;;;;17.40;10.70;;;3.30;99.90;;;;;;5094730;28;20476;-69
2020/12/06 03:15:44;;;;;;;22.83;10.73;;;3.30;99.90;;;;;;5094771;28;20447;-69
2020/12/06 03:18:10;;;;;;;23.53;11.63;;;3.30;99.90;;;;;;5094383;28;21084;-69
2020/12/06 03:20:36;;;;;;;18.33;10.80;;;3.30;99.90;;;;;;5094580;28;20460;-69
2020/12/06 03:23:02;;;;;;;22.37;12.20;;;3.30;99.90;;;;;;5094266;28;20436;-69
2020/12/06 03:25:29;;;;;;;17.57;10.83;;;3.20;99.90;;;;;;5094528;28;20443;-69
2020/12/06 03:27:55;;;;;;;22.40;12.30;;;3.30;99.90;;;;;;5094466;28;20447;-69
2020/12/06 03:30:22;;;;;;;22.27;12.30;;;3.30;99.90;;;;;;5094084;28;20804;-69
2020/12/06 03:32:48;;;;;;;21.50;11.83;;;3.30;99.90;;;;;;5094426;28;20479;-69
2020/12/06 03:35:14;;;;;;;19.80;11.27;;;3.30;99.90;;;;;;5093985;28;20475;-69
2020/12/06 03:37:40;;;;;;;20.17;11.47;;;3.30;99.90;;;;;;5094324;28;20459;-69
2020/12/06 03:40:07;;;;;;;18.13;11.03;;;3.30;99.90;;;;;;5093813;28;20831;-69
2020/12/06 03:42:33;;;;;;;17.37;10.33;;;3.40;99.90;;;;;;5094239;28;20436;-69
2020/12/06 03:45:00;;;;;;;21.03;10.70;;;3.40;99.90;;;;;;5093945;28;20499;-69
2020/12/06 03:47:27;;;;;;;17.73;10.73;;;3.40;99.90;;;;;;5094144;28;20448;-69
2020/12/06 03:49:53;;;;;;;21.37;11.60;;;3.40;99.90;;;;;;5094033;28;20463;-69
2020/12/06 03:52:19;;;;;;;22.23;12.20;;;3.30;99.90;;;;;;5093731;28;20479;-69
2020/12/06 03:54:45;;;;;;;21.37;11.57;;;3.40;99.90;;;;;;5093392;28;20416;-69
2020/12/06 03:57:11;;;;;;;18.90;11.40;;;3.40;99.90;;;;;;5093996;28;20440;-69
2020/12/06 03:59:38;;;;;;;19.87;11.80;;;3.40;99.90;;;;;;5093874;28;20459;-69
2020/12/06 04:02:04;;;;;;;18.63;11.10;;;3.40;99.90;;;;;;5093661;28;20431;-69
2020/12/06 04:04:31;;;;;;;18.70;11.07;;;3.40;99.90;;;;;;5093854;28;20462;-69
2020/12/06 04:06:57;;;;;;;16.13;10.60;;;3.30;99.90;;;;;;5094322;28;20440;-69
2020/12/06 04:09:23;;;;;;;14.93;10.20;;;3.40;99.90;;;;;;5093395;28;20863;-69
2020/12/06 04:11:49;;;;;;;17.87;10.63;;;3.40;99.90;;;;;;5093705;28;20451;-68
2020/12/06 04:14:16;;;;;;;20.50;11.90;;;3.40;99.90;;;;;;5093425;28;20435;-67
2020/12/06 04:16:42;;;;;;;19.10;11.00;;;3.40;99.90;;;;;;5093690;28;20438;-67
2020/12/06 04:19:08;;;;;;;20.97;12.50;;;3.40;99.90;;;;;;5093559;28;20452;-67
2020/12/06 04:21:35;;;;;;;20.30;13.43;;;3.40;99.90;;;;;;5093625;28;20438;-67
2020/12/06 04:24:01;;;;;;;20.90;11.60;;;3.50;99.90;;;;;;5093601;28;20443;-67
2020/12/06 04:26:27;;;;;;;23.53;12.40;;;3.50;99.90;;;;;;5093430;28;20511;-70
2020/12/06 04:28:54;;;;;;;25.70;13.90;;;3.40;99.90;;;;;;5093292;28;20432;-69
2020/12/06 04:31:20;;;;;;;19.77;12.47;;;3.40;99.90;;;;;;5092937;28;20836;-70
2020/12/06 04:33:46;;;;;;;21.00;12.87;;;3.40;99.90;;;;;;5092939;28;20488;-70
2020/12/06 04:36:12;;;;;;;24.90;13.30;;;3.40;99.90;;;;;;5093356;28;20420;-70
2020/12/06 04:38:39;;;;;;;20.50;12.40;;;3.40;99.90;;;;;;5093203;28;20450;-70
2020/12/06 04:41:05;;;;;;;24.07;14.17;;;3.30;99.90;;;;;;5093193;28;20467;-69
2020/12/06 04:43:34;;;;;;;23.80;12.87;;;3.30;99.90;;;;;;5093195;28;20436;-69
2020/12/06 04:46:01;;;;;;;26.50;14.07;;;3.30;99.90;;;;;;5093224;28;20447;-69
2020/12/06 04:48:40;;;;;;;24.37;12.90;;;3.30;99.90;;;;;;5092755;28;20931;-69
2020/12/06 04:51:08;;;;;;;24.00;14.53;;;3.30;99.90;;;;;;5092754;28;20829;-69
2020/12/06 04:53:44;;;;;;;24.17;13.67;;;3.30;99.90;;;;;;5092731;28;20873;-69
2020/12/06 04:56:12;;;;;;;26.13;13.60;;;3.30;99.90;;;;;;5093033;28;20424;-69
2020/12/06 04:58:40;;;;;;;23.37;12.77;;;3.30;99.90;;;;;;5093027;28;20447;-69
2020/12/06 05:01:06;;;;;;;22.40;13.20;;;3.30;99.90;;;;;;5092964;28;20460;-69
2020/12/06 05:03:34;;;;;;;24.50;13.07;;;3.40;99.90;;;;;;5092759;28;20801;-69
2020/12/06 05:06:01;;;;;;;22.37;13.30;;;3.40;99.90;;;;;;5093526;28;20447;-69
2020/12/06 05:08:30;;;;;;;31.47;14.20;;;3.40;99.90;;;;;;5096650;28;20801;-70
2020/12/06 05:10:59;;;;;;;34.93;14.90;;;3.40;99.90;;;;;;5096918;28;20463;-69
2020/12/06 05:13:26;;;;;;;42.93;15.60;;;3.40;99.90;;;;;;5096792;28;20484;-70
2020/12/06 05:15:53;;;;;;;66.97;14.80;;;3.50;99.90;;;;;;5096545;28;20455;-70
2020/12/06 05:18:19;;;;;;;40.97;12.80;;;3.50;99.90;;;;;;5096859;28;20439;-70
2020/12/06 05:20:46;;;;;;;24.67;11.93;;;3.50;99.90;;;;;;5096450;28;20967;-69
2020/12/06 05:23:13;;;;;;;28.40;11.23;;;3.60;99.90;;;;;;5096636;28;20428;-69
2020/12/06 05:25:39;;;;;;;35.33;10.60;;;3.60;99.90;;;;;;5096715;28;20443;-70
2020/12/06 05:28:07;;;;;;;25.53;10.37;;;3.60;99.90;;;;;;5096551;28;20443;-70
2020/12/06 05:30:33;;;;;;;32.20;11.43;;;3.60;99.90;;;;;;5096600;28;20452;-70
2020/12/06 05:33:00;;;;;;;28.13;12.17;;;3.60;99.90;;;;;;5096101;28;20993;-70
2020/12/06 05:35:26;;;;;;;30.20;12.47;;;3.50;99.90;;;;;;5096066;28;20494;-69
2020/12/06 05:37:52;;;;;;;25.57;12.10;;;3.50;99.90;;;;;;5096316;28;20450;-70
2020/12/06 05:40:18;;;;;;;21.40;10.93;;;3.50;99.90;;;;;;5095941;28;20452;-70
2020/12/06 05:42:46;;;;;;;31.30;12.70;;;3.60;99.90;;;;;;5096240;28;20435;-70
2020/12/06 05:45:17;;;;;;;26.63;11.80;;;3.50;99.90;;;;;;5096267;28;20447;-70
2020/12/06 05:47:44;;;;;;;26.00;12.27;;;3.50;99.90;;;;;;5096605;28;20416;-70
2020/12/06 05:50:10;;;;;;;27.30;13.20;;;3.50;99.90;;;;;;5095829;28;21009;-69
2020/12/06 05:52:36;;;;;;;29.67;13.20;;;3.40;99.90;;;;;;5096016;28;20498;-70
2020/12/06 05:55:04;;;;;;;30.23;13.70;;;3.40;99.90;;;;;;5096096;28;20446;-70
2020/12/06 05:57:31;;;;;;;24.90;11.87;;;3.40;99.90;;;;;;5096047;28;20442;-69
2020/12/06 06:00:00;;;;;;;27.40;13.40;;;3.40;99.90;;;;;;5095959;28;20452;-70
2020/12/06 06:02:27;;;;;;;30.40;13.33;;;3.40;99.90;;;;;;5095841;28;20954;-69
2020/12/06 06:05:02;;;;;;;27.30;12.70;;;3.30;99.90;;;;;;5096754;28;20479;-69
2020/12/06 06:07:30;;;;;;;30.50;13.80;;;3.30;99.90;;;;;;5095893;28;20420;-69
2020/12/06 06:09:59;;;;;;;31.30;12.77;;;3.20;99.90;;;;;;5095735;28;20470;-70
2020/12/06 06:12:30;;;;;;;27.73;12.10;;;3.30;99.90;;;;;;5095639;28;20502;-70
2020/12/06 06:14:59;;;;;;;23.53;10.87;;;3.20;99.90;;;;;;5095739;28;20454;-69
2020/12/06 06:17:28;;;;;;;27.63;10.30;;;3.30;99.90;;;;;;5095051;28;20444;-70
2020/12/06 06:19:55;;;;;;;30.90;12.47;;;3.20;99.90;;;;;;5095357;28;20460;-70
2020/12/06 06:22:26;;;;;;;29.60;11.80;;;3.20;99.90;;;;;;5095603;28;20447;-69
2020/12/06 06:24:55;;;;;;;26.60;12.60;;;3.20;99.90;;;;;;5095270;28;20428;-70
2020/12/06 06:27:21;;;;;;;37.73;13.23;;;3.10;99.90;;;;;;5095276;28;20815;-70
2020/12/06 06:29:49;;;;;;;31.87;13.80;;;3.10;99.90;;;;;;5095293;28;20462;-70
2020/12/06 06:32:15;;;;;;;29.67;12.47;;;3.10;99.90;;;;;;5095418;28;20538;-70
2020/12/06 06:34:43;;;;;;;29.53;11.60;;;3.20;99.90;;;;;;5095065;28;20475;-70
2020/12/06 06:37:14;;;;;;;28.37;11.70;;;3.20;99.90;;;;;;5095360;28;20448;-70
2020/12/06 06:39:41;;;;;;;44.47;15.17;;;3.20;99.90;;;;;;5095250;28;20460;-70
2020/12/06 06:42:10;;;;;;;34.67;13.13;;;3.30;99.90;;;;;;5094973;28;20935;-70
2020/12/06 06:44:38;;;;;;;28.80;11.13;;;3.20;99.90;;;;;;5095181;28;20444;-70
2020/12/06 06:47:06;;;;;;;25.63;11.30;;;3.20;99.90;;;;;;5095089;28;20440;-70
2020/12/06 06:49:47;;;;;;;32.50;13.17;;;3.20;99.90;;;;;;5095037;28;20488;-70
2020/12/06 06:52:16;;;;;;;26.70;12.10;;;3.20;99.90;;;;;;5094708;28;20432;-67
2020/12/06 06:54:47;;;;;;;33.97;12.60;;;3.10;99.90;;;;;;5095147;28;20444;-66
2020/12/06 06:57:15;;;;;;;45.30;12.53;;;3.20;99.90;;;;;;5095483;28;20431;-70
2020/12/06 06:59:44;;;;;;;35.17;10.90;;;3.20;99.90;;;;;;5094817;28;20460;-70
2020/12/06 07:02:34;;;;;;;60.50;12.17;;;3.20;99.90;;;;;;5094901;28;20440;-71
2020/12/06 07:05:01;;;;;;;36.37;11.67;;;3.20;99.90;;;;;;5092101;28;20452;-70
2020/12/06 07:07:45;;;;;;;62.77;10.10;;;3.20;99.90;;;;;;5094695;28;20447;-71
2020/12/06 07:10:13;;;;;;;53.63;10.73;;;3.20;99.90;;;;;;5094430;28;20470;-71
2020/12/06 07:12:42;;;;;;;51.57;11.30;;;3.20;99.90;;;;;;5094542;28;20550;-70
2020/12/06 07:15:10;;;;;;;30.23;11.27;;;3.20;99.90;;;;;;5094541;28;20462;-71
2020/12/06 07:17:36;;;;;;;31.40;11.17;;;3.20;99.90;;;;;;5094453;28;20447;-70
2020/12/06 07:20:05;;;;;;;42.27;10.57;;;3.20;99.90;;;;;;5093999;28;20975;-70
2020/12/06 07:22:31;;;;;;;30.60;9.80;;;3.20;99.90;;;;;;5094072;28;20436;-71
2020/12/06 07:24:59;;;;;;;35.00;10.50;;;3.20;99.90;;;;;;5094391;28;20443;-70
2020/12/06 07:27:25;;;;;;;29.50;9.33;;;3.30;99.90;;;;;;5094067;28;20435;-70
2020/12/06 07:29:51;;;;;;;53.67;11.33;;;3.30;99.90;;;;;;5092852;28;20573;-70
2020/12/06 07:32:20;;;;;;;61.73;11.67;;;3.30;99.90;;;;;;5094087;28;20447;-69
2020/12/06 07:34:46;;;;;;;26.97;10.13;;;3.30;99.90;;;;;;5093789;28;20537;-69
2020/12/06 07:37:14;;;;;;;56.63;12.37;;;3.30;99.90;;;;;;5093746;28;20427;-69
2020/12/06 07:39:44;;;;;;;37.00;11.67;;;3.30;99.90;;;;;;5093657;28;20463;-69
2020/12/06 07:42:11;;;;;;;40.50;10.93;;;3.30;99.90;;;;;;5093757;28;20426;-71
2020/12/06 07:44:48;;;;;;;22.90;8.87;;;3.30;99.90;;;;;;5093904;28;20428;-70
2020/12/06 07:47:14;;;;;;;24.40;8.90;;;3.30;99.90;;;;;;5093990;28;20443;-70
2020/12/06 07:49:45;;;;;;;32.60;11.20;;;3.30;99.90;;;;;;5093922;28;20463;-71
2020/12/06 07:52:12;;;;;;;45.57;10.83;;;3.30;99.90;;;;;;5093645;28;20435;-71
2020/12/06 07:54:39;;;;;;;33.30;10.03;;;3.40;99.90;;;;;;5093876;28;20487;-70
2020/12/06 07:57:07;;;;;;;37.87;10.03;;;3.40;99.90;;;;;;5093791;28;20466;-70
2020/12/06 07:59:35;;;;;;;33.13;9.10;;;3.40;99.90;;;;;;5093751;28;20456;-70
2020/12/06 08:02:04;;;;;;;34.37;8.43;;;3.40;99.90;;;;;;5093813;28;20424;-70
2020/12/06 08:04:34;;;;;;;37.60;10.87;;;3.40;99.90;;;;;;5093779;28;20421;-70
2020/12/06 08:07:05;;;;;;;26.50;9.70;;;3.40;99.90;;;;;;5093608;28;20431;-70
2020/12/06 08:09:36;;;;;;;28.87;10.00;;;3.40;99.90;;;;;;5094075;28;20490;-70
2020/12/06 08:12:04;;;;;;;38.77;10.27;;;3.40;99.90;;;;;;5093539;28;20425;-70
2020/12/06 08:14:31;;;;;;;22.77;9.63;;;3.40;99.90;;;;;;5093479;28;20529;-71
2020/12/06 08:17:00;;;;;;;29.27;9.60;;;3.30;99.90;;;;;;5093397;28;20494;-69
2020/12/06 08:19:27;;;;;;;42.70;9.93;;;3.30;99.90;;;;;;5093041;28;20459;-70
2020/12/06 08:21:59;;;;;;;31.50;9.67;;;3.30;99.90;;;;;;5093179;28;20899;-70
2020/12/06 08:24:26;;;;;;;17.13;7.83;;;3.30;99.90;;;;;;5093503;28;20493;-70
2020/12/06 08:26:53;;;;;;;23.80;8.70;;;3.30;99.90;;;;;;5093344;28;20814;-70
2020/12/06 08:29:20;;;;;;;28.17;9.77;;;3.40;99.90;;;;;;5093059;28;20949;-69
2020/12/06 08:31:48;;;;;;;19.90;8.33;;;3.50;99.90;;;;;;5093268;28;20440;-70
2020/12/06 08:34:17;;;;;;;23.40;8.10;;;3.50;99.90;;;;;;5093003;28;20973;-71
2020/12/06 08:36:44;;;;;;;18.60;8.47;;;3.50;99.90;;;;;;5093211;28;20472;-70
2020/12/06 08:39:18;;;;;;;14.90;6.87;;;3.50;99.90;;;;;;5093164;28;20448;-70
2020/12/06 08:41:44;;;;;;;24.03;7.40;;;3.60;99.90;;;;;;5096638;28;20446;-70
2020/12/06 08:44:11;;;;;;;18.43;7.27;;;3.60;99.90;;;;;;5099904;28;20446;-70
2020/12/06 08:46:37;;;;;;;14.70;7.40;;;3.50;99.90;;;;;;5099864;28;20439;-71
2020/12/06 08:49:16;;;;;;;17.10;6.23;;;3.50;99.90;;;;;;5099897;28;20466;-70
2020/12/06 08:51:49;;;;;;;16.27;7.30;;;3.60;99.90;;;;;;5099551;28;20822;-70
2020/12/06 08:54:15;;;;;;;14.97;6.63;;;3.60;99.90;;;;;;5099555;28;20969;-71
2020/12/06 08:56:42;;;;;;;22.23;6.67;;;3.60;99.90;;;;;;5099807;28;20835;-71
2020/12/06 08:59:10;;;;;;;15.90;6.50;;;3.70;99.90;;;;;;5099749;28;20457;-71
2020/12/06 09:01:46;;;;;;;15.17;6.47;;;3.80;99.90;;;;;;5099708;28;20440;-70
2020/12/06 09:04:13;;;;;;;14.00;6.87;;;3.90;99.90;;;;;;5099412;28;20888;-71
2020/12/06 09:06:40;;;;;;;14.97;6.63;;;3.90;99.90;;;;;;5099676;28;20431;-70
2020/12/06 09:09:06;;;;;;;15.90;7.67;;;3.90;99.90;;;;;;5099689;28;20420;-71
2020/12/06 09:11:33;;;;;;;19.10;7.50;;;3.90;99.90;;;;;;5100201;28;20906;-70
2020/12/06 09:13:59;;;;;;;14.10;6.90;;;3.90;99.90;;;;;;5099233;28;20467;-71
2020/12/06 09:16:25;;;;;;;21.97;7.60;;;3.90;99.90;;;;;;5099255;28;21006;-70
2020/12/06 09:18:51;;;;;;;17.10;7.83;;;3.90;99.90;;;;;;5099622;28;20436;-70
2020/12/06 09:21:17;;;;;;;14.00;6.07;;;3.90;99.90;;;;;;5099594;28;20464;-71
2020/12/06 09:23:45;;;;;;;12.30;6.83;;;3.90;99.90;;;;;;5099592;28;20784;-71
2020/12/06 09:26:11;;;;;;;13.80;6.60;;;3.90;99.90;;;;;;5099469;28;20493;-71
2020/12/06 09:28:38;;;;;;;13.60;6.60;;;3.90;99.90;;;;;;5099588;28;20438;-70
2020/12/06 09:31:05;;;;;;;11.93;6.47;;;4.00;99.90;;;;;;5099062;28;20997;-71
2020/12/06 09:33:31;;;;;;;11.67;6.50;;;4.10;99.90;;;;;;5099105;28;20475;-70
2020/12/06 09:35:58;;;;;;;9.70;5.90;;;4.10;99.90;;;;;;5099592;28;20428;-71
2020/12/06 09:38:24;;;;;;;12.07;5.97;;;4.10;99.90;;;;;;5099682;28;20538;-70
2020/12/06 09:40:51;;;;;;;12.47;6.07;;;4.10;99.90;;;;;;5099492;28;20468;-70
2020/12/06 09:43:17;;;;;;;10.10;6.77;;;4.10;99.90;;;;;;5099454;28;20786;-70
2020/12/06 09:45:44;;;;;;;13.17;7.37;;;4.10;99.90;;;;;;5099424;28;20446;-70
2020/12/06 09:48:10;;;;;;;7.47;5.37;;;4.10;99.90;;;;;;5099469;28;20527;-71
2020/12/06 09:50:37;;;;;;;10.30;7.00;;;4.10;99.90;;;;;;5099329;28;20460;-70
2020/12/06 09:53:03;;;;;;;8.73;6.13;;;4.10;99.90;;;;;;5096895;28;20475;-69
2020/12/06 09:55:29;;;;;;;7.87;4.90;;;4.10;99.90;;;;;;5096626;28;20446;-69
2020/12/06 09:57:56;;;;;;;6.57;5.30;;;4.10;99.90;;;;;;5095983;28;20923;-70
2020/12/06 10:00:23;;;;;;;7.27;4.97;;;4.10;99.90;;;;;;5096203;28;20463;-69
2020/12/06 10:02:49;;;;;;;8.50;5.90;;;4.20;99.90;;;;;;5096179;28;20439;-69
2020/12/06 10:05:15;;;;;;;10.17;6.70;;;4.10;99.90;;;;;;5095861;28;20895;-70
2020/12/06 10:07:41;;;;;;;9.30;6.07;;;4.20;99.90;;;;;;5096216;28;20431;-69
2020/12/06 10:10:08;;;;;;;9.13;5.63;;;4.20;99.90;;;;;;5096018;28;20469;-70
2020/12/06 10:12:34;;;;;;;10.60;5.80;;;4.20;99.90;;;;;;5096003;28;20416;-70
2020/12/06 10:15:03;;;;;;;6.90;4.80;;;4.30;99.90;;;;;;5095747;28;20429;-69
2020/12/06 10:17:30;;;;;;;7.40;5.17;;;4.30;99.90;;;;;;5096033;28;20431;-70
2020/12/06 10:19:56;;;;;;;7.90;5.83;;;4.20;99.90;;;;;;5095884;28;20822;-70
2020/12/06 10:22:22;;;;;;;7.93;5.20;;;4.20;99.90;;;;;;5095572;28;20428;-69
2020/12/06 10:24:48;;;;;;;9.70;6.13;;;4.20;99.90;;;;;;5095873;28;20427;-70
2020/12/06 10:27:15;;;;;;;9.73;6.03;;;4.20;99.90;;;;;;5095317;28;20428;-69
2020/12/06 10:29:41;;;;;;;9.30;5.90;;;4.20;99.90;;;;;;5095597;28;20463;-69
2020/12/06 10:32:08;;;;;;;10.10;6.37;;;4.20;99.90;;;;;;5096236;28;20416;-70
2020/12/06 10:34:34;;;;;;;10.90;6.53;;;4.20;99.90;;;;;;5095173;28;20492;-69
2020/12/06 10:37:00;;;;;;;10.27;6.20;;;4.20;99.90;;;;;;5095279;28;21032;-70
2020/12/06 10:39:27;;;;;;;11.17;7.17;;;4.20;99.90;;;;;;5095443;28;20460;-69
2020/12/06 10:41:55;;;;;;;22.13;9.77;;;4.20;99.90;;;;;;5095507;28;20439;-69
2020/12/06 10:44:22;;;;;;;12.50;7.80;;;4.20;99.90;;;;;;5095169;28;20420;-69
2020/12/06 10:46:49;;;;;;;11.20;6.67;;;4.20;99.90;;;;;;5094985;28;20927;-69
2020/12/06 10:49:16;;;;;;;10.23;6.50;;;4.40;99.90;;;;;;5095310;28;20431;-69
2020/12/06 10:51:44;;;;;;;11.17;6.57;;;4.40;99.90;;;;;;5095366;28;20425;-70
2020/12/06 10:54:11;;;;;;;12.20;7.50;;;4.40;99.90;;;;;;5095134;28;20460;-69
2020/12/06 10:56:38;;;;;;;10.70;6.37;;;4.40;99.90;;;;;;5095224;28;20440;-69
2020/12/06 10:59:04;;;;;;;11.30;6.93;;;4.50;99.90;;;;;;5095106;28;20447;-69
2020/12/06 11:01:31;;;;;;;12.23;6.80;;;4.50;99.90;;;;;;5094802;28;20823;-68
2020/12/06 11:03:58;;;;;;;11.20;6.70;;;4.50;99.90;;;;;;5094486;28;20842;-69
2020/12/06 11:06:26;;;;;;;12.10;7.30;;;4.50;99.90;;;;;;5095011;28;20429;-69
2020/12/06 11:08:52;;;;;;;12.07;7.27;;;4.50;99.90;;;;;;5094610;28;20900;-69
2020/12/06 11:11:20;;;;;;;10.60;6.27;;;4.60;99.90;;;;;;5094807;28;20460;-69
2020/12/06 11:13:47;;;;;;;9.03;6.30;;;4.60;99.90;;;;;;5094808;28;20467;-69
2020/12/06 11:16:15;;;;;;;7.63;5.70;;;4.60;99.90;;;;;;5094860;28;20424;-69
2020/12/06 11:18:42;;;;;;;11.33;6.00;;;4.60;99.90;;;;;;5094814;28;20463;-69
2020/12/06 11:21:08;;;;;;;8.30;5.87;;;4.60;99.90;;;;;;5094328;28;20470;-69
2020/12/06 11:23:35;;;;;;;11.50;6.17;;;4.60;99.90;;;;;;5094714;28;20417;-69
2020/12/06 11:26:01;;;;;;;8.97;6.30;;;4.60;99.90;;;;;;5094353;28;20940;-70
2020/12/06 11:28:27;;;;;;;8.93;6.07;;;4.60;99.90;;;;;;5094551;28;20544;-69
2020/12/06 11:30:54;;;;;;;7.90;5.53;;;4.70;99.90;;;;;;5094148;28;20974;-69
2020/12/06 11:33:20;;;;;;;6.70;4.97;;;4.80;99.90;;;;;;5094448;28;20467;-69
2020/12/06 11:35:47;;;;;;;5.83;4.90;;;4.80;99.90;;;;;;5094035;28;20471;-69
2020/12/06 11:38:13;;;;;;;9.70;5.60;;;4.80;99.90;;;;;;5094400;28;20547;-69
2020/12/06 11:40:40;;;;;;;9.23;5.90;;;4.80;99.90;;;;;;5094284;28;20456;-69
2020/12/06 11:43:06;;;;;;;9.53;6.37;;;4.80;99.90;;;;;;5094287;28;20417;-69
2020/12/06 11:45:32;;;;;;;8.50;6.20;;;4.80;99.90;;;;;;5095090;28;20417;-70
2020/12/06 11:47:59;;;;;;;9.47;6.00;;;4.90;99.90;;;;;;5094246;28;20431;-69
2020/12/06 11:50:25;;;;;;;9.17;5.60;;;4.90;99.90;;;;;;5093763;28;20971;-69
2020/12/06 11:52:51;;;;;;;7.17;5.53;;;4.90;99.90;;;;;;5093969;28;20416;-68
2020/12/06 11:55:17;;;;;;;7.10;4.47;;;4.90;99.90;;;;;;5093737;28;20795;-68
2020/12/06 11:57:44;;;;;;;8.37;5.10;;;4.90;99.90;;;;;;5093815;28;20957;-69
2020/12/06 12:00:11;;;;;;;6.43;5.27;;;4.90;99.90;;;;;;5093707;28;20470;-68
2020/12/06 12:02:37;;;;;;;7.50;5.23;;;4.80;99.90;;;;;;5094040;28;20420;-68
2020/12/06 12:05:03;;;;;;;6.60;4.53;;;4.90;99.90;;;;;;5093958;28;20428;-68
2020/12/06 12:07:31;;;;;;;5.67;4.60;;;4.90;99.90;;;;;;5093938;28;20420;-68
2020/12/06 12:09:57;;;;;;;5.80;5.07;;;5.00;99.90;;;;;;5093497;28;20471;-68
2020/12/06 12:12:23;;;;;;;7.17;4.93;;;5.00;99.90;;;;;;5093886;28;20432;-68
2020/12/06 12:14:50;;;;;;;7.63;5.40;;;5.10;99.90;;;;;;5093654;28;20480;-68
2020/12/06 12:17:16;;;;;;;6.83;4.67;;;5.20;99.90;;;;;;5093145;28;20426;-68
2020/12/06 12:19:42;;;;;;;6.70;4.77;;;5.20;99.90;;;;;;5093639;28;20463;-68
2020/12/06 12:22:09;;;;;;;7.40;4.67;;;5.20;99.90;;;;;;5093326;28;20918;-69
2020/12/06 12:24:35;;;;;;;9.57;4.27;;;5.20;99.90;;;;;;5093581;28;20420;-69
2020/12/06 12:27:01;;;;;;;5.93;4.60;;;5.30;99.90;;;;;;5093577;28;20420;-69
2020/12/06 12:29:28;;;;;;;6.57;5.50;;;5.30;99.90;;;;;;5093185;28;20970;-67
2020/12/06 12:31:55;;;;;;;6.77;4.70;;;5.40;99.90;;;;;;5093246;28;20435;-69
2020/12/06 12:34:21;;;;;;;6.63;4.60;;;5.40;99.90;;;;;;5092935;28;20495;-69
2020/12/06 12:36:48;;;;;;;4.77;4.33;;;5.50;99.90;;;;;;5093452;28;20445;-68
2020/12/06 12:39:14;;;;;;;4.87;4.47;;;5.40;99.90;;;;;;5093398;28;20788;-68
2020/12/06 12:41:41;;;;;;;4.30;3.90;;;5.40;99.90;;;;;;5093482;28;20805;-68
2020/12/06 12:44:08;;;;;;;6.03;4.80;;;5.40;99.90;;;;;;5093438;28;20420;-68